createdAt,value
2023-02-14T08:28:58.521Z,119.57
2023-02-14T08:31:35.105Z,85.38
2023-02-14T08:34:03.551Z,61.45
2023-02-14T08:36:31.308Z,44.67
2023-02-14T08:38:59.068Z,59.90
2023-02-14T08:41:26.845Z,138.95
2023-02-14T08:43:54.945Z,81.70
2023-02-14T08:46:24.155Z,85.43
2023-02-14T08:48:53.627Z,99.85
2023-02-14T08:51:22.922Z,87.82
2023-02-14T08:53:50.999Z,120.60
2023-02-14T08:56:20.168Z,123.90
2023-02-14T08:58:48.010Z,115.18
2023-02-14T09:01:16.765Z,52.38
2023-02-14T09:03:46.321Z,78.13
2023-02-14T09:06:16.951Z,51.92
2023-02-14T09:08:45.595Z,75.50
2023-02-14T09:11:15.046Z,115.72
2023-02-14T09:13:43.346Z,104.20
2023-02-14T09:16:12.260Z,80.88
2023-02-14T09:18:40.768Z,83.07
2023-02-14T09:21:10.789Z,69.53
2023-02-14T09:23:39.075Z,50.25
2023-02-14T09:26:08.352Z,45.45
2023-02-14T09:28:36.705Z,78.38
2023-02-14T09:31:09.547Z,49.90
2023-02-14T09:36:23.046Z,123.65
2023-02-14T09:38:52.410Z,57.40
2023-02-14T09:41:33.904Z,53.80
2023-02-14T09:44:03.645Z,75.00
2023-02-14T09:46:32.571Z,78.40
2023-02-14T09:49:00.558Z,47.03
2023-02-14T09:51:30.637Z,64.63
2023-02-14T09:54:01.645Z,59.17
2023-02-14T09:56:42.727Z,74.85
2023-02-14T09:59:20.236Z,64.45
2023-02-14T10:01:50.880Z,49.55
2023-02-14T10:04:24.020Z,57.08
2023-02-14T10:06:53.450Z,132.80
2023-02-14T10:09:51.497Z,34.08
2023-02-14T10:12:23.281Z,37.10
2023-02-14T10:14:51.352Z,51.38
2023-02-14T10:17:20.976Z,61.17
2023-02-14T10:19:50.430Z,42.15
2023-02-14T10:22:19.920Z,43.97
2023-02-14T10:24:50.214Z,41.28
2023-02-14T10:27:27.251Z,29.95
2023-02-14T10:29:56.456Z,80.50
2023-02-14T10:32:29.325Z,51.75
2023-02-14T10:34:58.798Z,95.97
2023-02-14T10:37:32.793Z,24.70
2023-02-14T10:40:16.051Z,107.38
2023-02-14T10:42:51.332Z,74.63
2023-02-14T10:45:25.299Z,85.30
2023-02-14T10:47:57.520Z,84.63
2023-02-14T10:50:28.802Z,101.28
2023-02-14T10:53:02.764Z,39.30
2023-02-14T10:55:35.115Z,30.33
2023-02-14T10:58:05.001Z,39.95
2023-02-14T11:00:35.149Z,68.30
2023-02-14T11:03:06.129Z,38.90
2023-02-14T11:05:35.988Z,21.45
2023-02-14T11:08:13.060Z,48.22
2023-02-14T11:10:40.943Z,28.75
2023-02-14T11:13:27.341Z,18.05
2023-02-14T11:15:59.590Z,63.78
2023-02-14T11:18:31.843Z,22.42
2023-02-14T11:21:03.822Z,29.27
2023-02-14T11:23:35.253Z,30.77
2023-02-14T11:26:03.915Z,28.15
2023-02-14T11:28:32.175Z,42.55
2023-02-14T11:31:01.720Z,41.03
2023-02-14T11:33:34.212Z,60.50
2023-02-14T11:36:03.056Z,28.33
2023-02-14T11:38:33.947Z,22.63
2023-02-14T11:41:02.002Z,16.27
2023-02-14T11:43:34.471Z,23.13
2023-02-14T11:46:08.434Z,40.92
2023-02-14T11:48:38.664Z,92.45
2023-02-14T11:51:09.474Z,31.98
2023-02-14T11:53:45.517Z,57.78
2023-02-14T11:56:13.677Z,29.73
2023-02-14T11:58:42.548Z,20.38
2023-02-14T12:01:13.467Z,44.35
2023-02-14T12:03:45.565Z,30.30
2023-02-14T12:06:13.979Z,55.13
2023-02-14T12:08:43.092Z,24.27
2023-02-14T12:11:20.431Z,23.33
2023-02-14T12:13:52.732Z,85.65
2023-02-14T12:16:23.423Z,29.83
2023-02-14T12:18:53.942Z,22.73
2023-02-14T12:21:28.629Z,20.92
2023-02-14T12:24:00.418Z,22.98
2023-02-14T12:26:31.889Z,24.65
2023-02-14T12:29:03.843Z,20.88
2023-02-14T12:31:33.056Z,21.95
2023-02-14T12:34:01.576Z,22.92
2023-02-14T12:36:39.874Z,20.13
2023-02-14T12:39:13.203Z,25.58
2023-02-14T12:41:48.532Z,26.98
2023-02-14T12:44:18.196Z,24.52
2023-02-14T12:46:56.543Z,23.13
2023-02-14T12:49:33.037Z,23.08
2023-02-14T12:52:04.484Z,22.85
2023-02-14T12:54:38.315Z,27.65
2023-02-14T12:57:09.441Z,27.15
2023-02-14T12:59:42.316Z,24.33
2023-02-14T13:02:25.317Z,24.00
2023-02-14T13:04:59.739Z,21.02
2023-02-14T13:07:39.108Z,25.15
2023-02-14T13:10:13.847Z,23.15
2023-02-14T13:12:43.564Z,22.95
2023-02-14T13:15:19.056Z,23.83
2023-02-14T13:17:49.957Z,23.08
2023-02-14T13:20:30.948Z,23.75
2023-02-14T13:23:01.430Z,23.42
2023-02-14T13:25:33.620Z,19.25
2023-02-14T13:28:03.508Z,22.05
2023-02-14T13:30:32.750Z,23.35
2023-02-14T13:33:02.770Z,24.13
2023-02-14T13:35:32.398Z,24.52
2023-02-14T13:38:03.267Z,24.08
2023-02-14T13:40:32.122Z,22.40
2023-02-14T13:43:00.650Z,27.48
2023-02-14T13:45:47.069Z,21.38
2023-02-14T13:48:15.508Z,21.58
2023-02-14T13:50:50.634Z,24.92
2023-02-14T13:53:31.506Z,27.63
2023-02-14T13:56:00.348Z,22.13
2023-02-14T13:58:28.495Z,23.48
2023-02-14T14:00:57.046Z,23.92
2023-02-14T14:03:45.673Z,30.52
2023-02-14T14:06:15.012Z,26.05
2023-02-14T14:08:44.283Z,34.75
2023-02-14T14:11:14.164Z,41.80
2023-02-14T14:13:58.356Z,37.58
2023-02-14T14:16:30.815Z,29.70
2023-02-14T14:19:00.008Z,25.38
2023-02-14T14:21:30.388Z,22.25
2023-02-14T14:24:06.348Z,25.65
2023-02-14T14:26:38.331Z,37.10
2023-02-14T14:29:11.668Z,26.02
2023-02-14T14:31:41.591Z,22.60
2023-02-14T14:34:16.394Z,22.13
2023-02-14T14:36:45.527Z,21.13
2023-02-14T14:39:13.538Z,27.88
2023-02-14T14:41:41.502Z,24.08
2023-02-14T14:44:09.334Z,37.88
2023-02-14T14:46:38.167Z,29.60
2023-02-14T14:49:09.554Z,24.40
2023-02-14T14:51:39.037Z,93.43
2023-02-14T14:54:14.691Z,35.75
2023-02-14T14:56:47.566Z,54.08
2023-02-14T14:59:19.657Z,26.33
2023-02-14T15:01:48.244Z,37.47
2023-02-14T15:04:17.838Z,39.15
2023-02-14T15:06:45.757Z,55.80
2023-02-14T15:09:16.641Z,24.80
2023-02-14T15:12:02.449Z,30.10
2023-02-14T15:14:31.731Z,69.00
2023-02-14T15:17:01.409Z,47.75
2023-02-14T15:19:34.288Z,65.18
2023-02-14T15:22:03.162Z,32.83
2023-02-14T15:24:35.002Z,53.03
2023-02-14T15:27:03.037Z,45.55
2023-02-14T15:29:31.764Z,49.22
2023-02-14T15:32:03.021Z,35.42
2023-02-14T15:34:34.792Z,76.90
2023-02-14T15:37:06.674Z,37.33
2023-02-14T15:39:37.550Z,54.60
2023-02-14T15:42:05.996Z,44.38
2023-02-14T15:44:33.950Z,69.50
2023-02-14T15:47:03.958Z,79.80
2023-02-14T15:49:33.901Z,36.58
2023-02-14T15:52:02.663Z,73.00
2023-02-14T15:54:33.528Z,153.18
2023-02-14T15:57:02.882Z,32.33
2023-02-14T15:59:32.063Z,39.28
2023-02-14T16:02:01.384Z,47.05
2023-02-14T16:04:30.214Z,63.05
2023-02-14T16:07:05.857Z,58.47
2023-02-14T16:09:35.409Z,60.17
2023-02-14T16:12:30.023Z,87.80
2023-02-14T16:15:11.585Z,91.90
2023-02-14T16:17:40.075Z,53.83
2023-02-14T16:20:22.461Z,72.22
2023-02-14T16:22:50.595Z,55.77
2023-02-14T16:25:18.369Z,53.22
2023-02-14T16:27:46.614Z,63.88
2023-02-14T16:30:19.484Z,48.67
2023-02-14T16:32:50.144Z,83.65
2023-02-14T16:35:20.176Z,47.90
2023-02-14T16:37:48.618Z,68.47
2023-02-14T16:40:16.577Z,64.97
2023-02-14T16:42:45.206Z,62.08
2023-02-14T16:45:16.393Z,78.05
2023-02-14T16:47:47.395Z,113.75
2023-02-14T16:50:15.657Z,182.50
2023-02-14T16:52:44.374Z,139.23
2023-02-14T16:55:16.548Z,133.57
2023-02-14T16:57:48.498Z,178.25
2023-02-14T17:00:16.817Z,124.30
2023-02-14T17:02:46.079Z,136.07
2023-02-14T17:05:14.203Z,123.18
2023-02-14T17:07:43.353Z,116.57
2023-02-14T17:10:15.667Z,88.40
2023-02-14T17:12:44.660Z,123.90
2023-02-14T17:15:15.727Z,190.60
2023-02-14T17:17:45.800Z,133.68
2023-02-14T17:20:15.407Z,129.48
2023-02-14T17:22:45.584Z,118.85
2023-02-14T17:25:14.343Z,84.28
2023-02-14T17:27:44.713Z,87.22
2023-02-14T17:30:13.143Z,132.77
2023-02-14T17:32:41.079Z,89.50
2023-02-14T17:35:09.387Z,54.13
2023-02-14T17:37:38.608Z,121.25
2023-02-14T17:40:06.968Z,116.10
2023-02-14T17:42:35.116Z,83.07
2023-02-14T17:45:04.065Z,102.78
2023-02-14T17:47:32.002Z,146.65
2023-02-14T17:50:00.186Z,88.60
2023-02-14T17:52:30.151Z,74.93
2023-02-14T17:54:59.936Z,50.95
2023-02-14T17:57:27.964Z,72.45
2023-02-14T17:59:55.742Z,70.82
2023-02-14T18:02:23.732Z,53.88
2023-02-14T18:04:51.634Z,48.85
2023-02-14T18:07:19.484Z,41.53
2023-02-14T18:09:47.744Z,62.55
2023-02-14T18:12:16.814Z,66.25
2023-02-14T18:14:44.791Z,63.17
2023-02-14T18:17:13.507Z,51.50
2023-02-14T18:19:41.358Z,78.95
2023-02-14T18:22:09.241Z,64.70
2023-02-14T18:24:37.296Z,89.18
2023-02-14T18:27:06.260Z,76.18
2023-02-14T18:29:35.826Z,58.70
2023-02-14T18:32:04.779Z,82.97
2023-02-14T18:34:33.053Z,133.80
2023-02-14T18:37:02.696Z,104.20
2023-02-14T18:39:30.552Z,101.53
2023-02-14T18:41:59.900Z,68.32
2023-02-14T18:44:27.854Z,48.72
2023-02-14T18:46:57.269Z,71.50
2023-02-14T18:49:25.016Z,68.60
2023-02-14T18:51:53.042Z,89.50
2023-02-14T18:54:20.771Z,93.45
2023-02-14T18:56:48.573Z,119.82
2023-02-14T18:59:17.615Z,128.23
2023-02-14T19:01:47.248Z,136.05
2023-02-14T19:04:17.908Z,109.90
2023-02-14T19:06:46.021Z,119.90
2023-02-14T19:09:14.848Z,195.48
2023-02-14T19:11:42.675Z,84.25
2023-02-14T19:14:11.071Z,150.15
2023-02-14T19:16:39.968Z,150.50
2023-02-14T19:19:08.429Z,97.43
2023-02-14T19:21:38.040Z,62.80
2023-02-14T19:24:07.786Z,94.70
2023-02-14T19:26:40.165Z,69.40
2023-02-14T19:29:09.592Z,99.75
2023-02-14T19:31:38.627Z,165.27
2023-02-14T19:34:07.475Z,121.50
2023-02-14T19:36:36.451Z,147.95
2023-02-14T19:39:05.844Z,85.68
2023-02-14T19:41:34.563Z,126.03
2023-02-14T19:44:04.499Z,68.80
2023-02-14T19:46:32.310Z,151.05
2023-02-14T19:49:00.917Z,123.97
2023-02-14T19:51:29.913Z,174.52
2023-02-14T19:54:01.418Z,142.50
2023-02-14T19:56:34.619Z,159.20
2023-02-14T19:59:07.873Z,127.97
2023-02-14T20:01:37.625Z,185.55
2023-02-14T20:04:05.942Z,139.02
2023-02-14T20:06:34.077Z,175.25
2023-02-14T20:09:02.092Z,113.55
2023-02-14T20:11:32.379Z,117.57
2023-02-14T20:14:00.798Z,161.98
2023-02-14T20:16:29.711Z,163.20
2023-02-14T20:18:57.811Z,146.35
2023-02-14T20:21:28.472Z,91.32
2023-02-14T20:23:57.787Z,114.30
2023-02-14T20:26:25.553Z,78.70
2023-02-14T20:28:55.075Z,77.85
2023-02-14T20:31:22.973Z,74.65
2023-02-14T20:33:52.683Z,95.95
2023-02-14T20:36:20.908Z,127.20
2023-02-14T20:38:48.665Z,129.00
2023-02-14T20:41:17.500Z,103.93
2023-02-14T20:43:45.259Z,90.32
2023-02-14T20:46:14.415Z,96.45
2023-02-14T20:48:42.187Z,64.85
2023-02-14T20:51:10.494Z,92.63
2023-02-14T20:53:38.327Z,122.10
2023-02-14T20:56:06.273Z,127.03
2023-02-14T20:58:35.022Z,102.75
2023-02-14T21:01:06.545Z,109.45
2023-02-14T21:03:37.345Z,166.52
2023-02-14T21:06:05.531Z,74.85
2023-02-14T21:08:34.097Z,150.73
2023-02-14T21:11:02.515Z,74.50
2023-02-14T21:13:30.787Z,92.75
2023-02-14T21:16:01.856Z,71.85
2023-02-14T21:18:29.669Z,118.93
2023-02-14T21:21:05.765Z,134.77
2023-02-14T21:23:33.649Z,128.95
2023-02-14T21:26:01.416Z,79.38
2023-02-14T21:28:29.597Z,87.07
2023-02-14T21:31:04.766Z,146.50
2023-02-14T21:33:33.395Z,121.07
2023-02-14T21:36:07.786Z,86.70
2023-02-14T21:38:35.554Z,140.88
2023-02-14T21:41:05.104Z,80.35
2023-02-14T21:43:34.136Z,153.25
2023-02-14T21:46:05.151Z,150.05
2023-02-14T21:48:50.484Z,120.78
2023-02-14T21:51:19.833Z,121.97
2023-02-14T21:53:48.068Z,92.75
2023-02-14T21:56:19.526Z,113.22
2023-02-14T21:58:47.653Z,117.45
2023-02-14T22:01:19.553Z,90.20
2023-02-14T22:03:47.368Z,86.88
2023-02-14T22:06:15.472Z,87.78
2023-02-14T22:08:44.688Z,156.98
2023-02-14T22:11:13.810Z,125.65
2023-02-14T22:13:44.714Z,138.98
2023-02-14T22:16:13.498Z,86.53
2023-02-14T22:18:41.566Z,140.32
2023-02-14T22:21:10.419Z,122.32
2023-02-14T22:23:38.635Z,105.75
2023-02-14T22:26:11.820Z,82.97
2023-02-14T22:28:39.676Z,91.43
2023-02-14T22:31:07.723Z,79.35
2023-02-14T22:33:37.498Z,53.03
2023-02-14T22:36:06.509Z,117.10
2023-02-14T22:38:34.487Z,95.82
2023-02-14T22:41:05.700Z,92.25
2023-02-14T22:43:35.079Z,73.78
2023-02-14T22:46:03.818Z,126.88
2023-02-14T22:48:32.065Z,106.13
2023-02-14T22:51:08.437Z,95.40
2023-02-14T22:53:36.230Z,85.07
2023-02-14T22:56:10.823Z,129.18
2023-02-14T22:58:40.572Z,108.20
2023-02-14T23:01:12.974Z,70.00
2023-02-14T23:03:40.796Z,126.22
2023-02-14T23:06:08.581Z,96.53
2023-02-14T23:08:38.929Z,100.40
2023-02-14T23:11:07.842Z,154.10
2023-02-14T23:13:53.814Z,129.50
2023-02-14T23:16:40.401Z,124.63
2023-02-14T23:19:28.576Z,168.43
2023-02-14T23:21:56.665Z,130.20
2023-02-14T23:24:24.721Z,82.20
2023-02-14T23:26:52.684Z,117.50
2023-02-14T23:29:20.405Z,123.38
2023-02-14T23:31:49.773Z,107.47
2023-02-14T23:34:17.595Z,60.45
2023-02-14T23:36:45.920Z,121.18
2023-02-14T23:39:14.115Z,100.50
2023-02-14T23:41:50.729Z,81.93
2023-02-14T23:44:20.070Z,75.85
2023-02-14T23:46:49.784Z,103.95
2023-02-14T23:49:17.975Z,79.55
2023-02-14T23:51:46.520Z,104.57
2023-02-14T23:54:14.451Z,98.47
2023-02-14T23:56:42.207Z,84.72
2023-02-14T23:59:10.643Z,119.88
